Time,TemperatureF,DewpointF,PressureIn,WindDirection,WindDirectionDegrees,WindSpeedMPH,WindSpeedGustMPH,Humidity,HourlyPrecipIn,Conditions,Clouds,dailyrainin,SolarRadiationWatts/m^2,SoftwareType,DateUTC
2013-09-29 00:12:00,52.0,30.0,30.22,ESE,120,0.0,1.0,42,-99.99,,,-99.99,0.000000,,2013-09-29 06:12:00,
2013-09-29 00:42:00,51.0,26.0,30.22,West,280,5.0,6.0,38,-99.99,,,-99.99,0.000000,,2013-09-29 06:42:00,
2013-09-29 00:52:00,51.0,26.0,30.22,West,280,5.0,6.0,38,-99.99,,,-99.99,0.000000,,2013-09-29 06:52:00,
2013-09-29 01:02:00,51.0,26.0,30.22,West,280,5.0,6.0,38,-99.99,,,-99.99,0.000000,,2013-09-29 07:02:00,
2013-09-29 01:43:00,48.0,31.0,30.23,West,262,3.0,4.0,51,-99.99,,,-99.99,0.000000,,2013-09-29 07:43:00,
2013-09-29 02:12:00,49.0,28.0,30.22,WNW,296,5.0,7.0,42,-99.99,,,-99.99,0.000000,,2013-09-29 08:12:00,
2013-09-29 02:22:00,49.0,28.0,30.22,WNW,302,6.0,8.0,44,-99.99,,,-99.99,0.000000,,2013-09-29 08:22:00,
2013-09-29 02:42:00,50.0,29.0,30.22,WNW,293,8.0,10.0,43,-99.99,,,-99.99,0.000000,,2013-09-29 08:42:00,
2013-09-29 03:11:00,50.0,28.0,30.21,WNW,282,6.0,9.0,43,-99.99,,,-99.99,0.000000,,2013-09-29 09:11:00,
2013-09-29 03:22:00,50.0,28.0,30.21,WNW,282,6.0,9.0,43,-99.99,,,-99.99,0.000000,,2013-09-29 09:22:00,
2013-09-29 03:33:00,50.0,28.0,30.21,WNW,282,6.0,9.0,43,-99.99,,,-99.99,0.000000,,2013-09-29 09:33:00,
2013-09-29 04:12:00,48.0,29.0,30.20,West,272,5.0,6.0,48,-99.99,,,-99.99,0.000000,,2013-09-29 10:12:00,
2013-09-29 04:43:00,47.0,29.0,30.19,West,275,3.0,5.0,50,-99.99,,,-99.99,0.000000,,2013-09-29 10:43:00,
2013-09-29 04:53:00,46.0,32.0,30.19,WNW,289,2.0,6.0,58,-99.99,,,-99.99,0.000000,,2013-09-29 10:53:00,
2013-09-29 05:03:00,46.0,32.0,30.19,WNW,289,2.0,6.0,58,-99.99,,,-99.99,0.000000,,2013-09-29 11:03:00,
2013-09-29 05:12:00,46.0,32.0,30.19,WNW,289,2.0,6.0,58,-99.99,,,-99.99,0.000000,,2013-09-29 11:12:00,
2013-09-29 05:42:00,46.0,29.0,30.19,WNW,286,5.0,8.0,51,-99.99,,,-99.99,0.000000,,2013-09-29 11:42:00,
2013-09-29 06:12:00,45.0,30.0,30.20,WNW,283,3.0,6.0,54,-99.99,,,-99.99,0.000000,,2013-09-29 12:12:00,
2013-09-29 06:42:00,45.0,30.0,30.21,NW,314,1.0,2.0,55,-99.99,,,-99.99,0.000000,,2013-09-29 12:42:00,
2013-09-29 07:42:00,43.0,32.0,30.21,SW,233,2.0,3.0,64,-99.99,,,-99.99,2.090000,,2013-09-29 13:42:00,
2013-09-29 08:12:00,50.0,33.0,30.21,West,268,1.0,3.0,50,-99.99,,,-99.99,92.750000,,2013-09-29 14:12:00,
2013-09-29 08:43:00,58.0,33.0,30.23,NE,42,1.0,2.0,38,-99.99,,,-99.99,181.309998,,2013-09-29 14:43:00,
2013-09-29 08:52:00,61.0,32.0,30.23,ESE,118,2.0,6.0,33,-99.99,,,-99.99,234.300003,,2013-09-29 14:52:00,
2013-09-29 09:02:00,61.0,32.0,30.23,ESE,118,2.0,6.0,33,-99.99,,,-99.99,234.300003,,2013-09-29 15:02:00,
2013-09-29 09:22:00,59.0,36.0,30.24,ESE,113,3.0,6.0,41,-99.99,,,-99.99,281.029999,,2013-09-29 15:22:00,
2013-09-29 09:45:00,61.0,33.0,30.24,East,94,2.0,4.0,34,-99.99,,,-99.99,365.399994,,2013-09-29 15:45:00,
2013-09-29 10:44:00,65.0,32.0,30.25,ENE,65,3.0,6.0,29,-99.99,,,-99.99,539.039978,,2013-09-29 16:44:00,
2013-09-29 11:12:00,66.0,32.0,30.24,East,82,3.0,7.0,28,-99.99,,,-99.99,574.599976,,2013-09-29 17:12:00,
2013-09-29 11:24:00,67.0,33.0,30.24,East,86,4.0,7.0,28,-99.99,,,-99.99,639.450012,,2013-09-29 17:24:00,
2013-09-29 11:34:00,67.0,33.0,30.24,East,86,4.0,7.0,28,-99.99,,,-99.99,639.450012,,2013-09-29 17:34:00,
2013-09-29 11:43:00,67.0,33.0,30.24,East,86,4.0,7.0,28,-99.99,,,-99.99,639.450012,,2013-09-29 17:43:00,
2013-09-29 12:42:00,72.0,34.0,30.22,ESE,102,3.0,8.0,25,-99.99,,,-99.99,741.960022,,2013-09-29 18:42:00,
2013-09-29 13:42:00,73.0,34.0,30.19,NE,52,3.0,7.0,23,-99.99,,,-99.99,762.190002,,2013-09-29 19:42:00,
2013-09-29 14:22:00,76.0,34.0,30.16,NE,44,3.0,10.0,21,-99.99,,,-99.99,748.239990,,2013-09-29 20:22:00,
2013-09-29 14:43:00,78.0,28.0,30.14,NNW,343,6.0,14.0,16,-99.99,,,-99.99,724.530029,,2013-09-29 20:43:00,
2013-09-29 15:44:00,79.0,31.0,30.11,NW,324,7.0,14.0,16,-99.99,,,-99.99,628.299988,,2013-09-29 21:44:00,
2013-09-29 16:24:00,80.0,31.0,30.10,NW,311,9.0,18.0,16,-99.99,,,-99.99,562.049988,,2013-09-29 22:24:00,
2013-09-29 16:43:00,80.0,31.0,30.09,WNW,289,9.0,20.0,16,-99.99,,,-99.99,483.250000,,2013-09-29 22:43:00,
2013-09-29 16:53:00,80.0,31.0,30.09,WNW,289,9.0,20.0,16,-99.99,,,-99.99,483.250000,,2013-09-29 22:53:00,
2013-09-29 17:03:00,80.0,31.0,30.09,WNW,289,9.0,20.0,16,-99.99,,,-99.99,483.250000,,2013-09-29 23:03:00,
2013-09-29 17:43:00,80.0,32.0,30.08,NW,309,9.0,14.0,17,-99.99,,,-99.99,303.339996,,2013-09-29 23:43:00,
2013-09-29 17:53:00,79.0,33.0,30.08,NW,313,10.0,14.0,18,-99.99,,,-99.99,253.130005,,2013-09-29 23:53:00,
2013-09-29 18:01:00,79.0,33.0,30.08,NW,313,10.0,14.0,18,-99.99,,,-99.99,253.130005,,2013-09-30 00:01:00,
2013-09-29 18:11:00,79.0,33.0,30.08,NW,313,10.0,14.0,18,-99.99,,,-99.99,253.130005,,2013-09-30 00:11:00,
2013-09-29 18:52:00,77.0,36.0,30.07,WNW,285,5.0,7.0,22,-99.99,,,-99.99,115.059998,,2013-09-30 00:52:00,
2013-09-29 19:02:00,77.0,36.0,30.07,WNW,285,5.0,7.0,22,-99.99,,,-99.99,115.059998,,2013-09-30 01:02:00,
2013-09-29 21:12:00,60.0,39.0,30.08,SW,229,3.0,6.0,47,-99.99,,,-99.99,0.000000,,2013-09-30 03:12:00,
2013-09-29 21:44:00,59.0,38.0,30.09,WNW,295,6.0,10.0,45,-99.99,,,-99.99,0.000000,,2013-09-30 03:44:00,
2013-09-29 22:44:00,59.0,38.0,30.09,West,268,5.0,7.0,46,-99.99,,,-99.99,0.000000,,2013-09-30 04:44:00,
2013-09-29 23:12:00,61.0,37.0,30.09,SW,220,4.0,8.0,41,-99.99,,,-99.99,0.000000,,2013-09-30 05:12:00,
2013-09-29 23:43:00,60.0,37.0,30.08,South,170,2.0,3.0,43,-99.99,,,-99.99,0.000000,,2013-09-30 05:43:00,
2013-09-29 23:52:00,61.0,37.0,30.08,SSE,151,2.0,4.0,41,-99.99,,,-99.99,0.000000,,2013-09-30 05:52:00,